Terminal Aerodrome Forecast
Issued by NWS

Home | Current Version | Previous Version | Text Only | Print | Product List | Glossary Off
Versions: 1 2 3 4 5 6 7 8 9 10 11 12 13

000
FTUS43 KICT 241700
TAFCNU
TAF
KCNU 241720Z 2418/2518 19014G21KT P6SM FEW080
     FM250300 16008KT P6SM SKC
     FM251500 19009KT P6SM SKC=

USA.gov is the U.S. government's official web portal to all federal, state and local government web resources and services.